createdAt,value
2017-08-13T00:00:03.480Z,3.70
2017-08-13T00:02:31.891Z,4.47
2017-08-13T00:05:00.437Z,3.47
2017-08-13T00:07:28.880Z,4.23
2017-08-13T00:10:04.040Z,4.10
2017-08-13T00:12:37.274Z,4.07
2017-08-13T00:15:06.714Z,4.37
2017-08-13T00:17:35.142Z,4.10
2017-08-13T00:20:03.587Z,4.27
2017-08-13T00:22:32.122Z,4.30
2017-08-13T00:25:00.524Z,3.90
2017-08-13T00:27:36.335Z,4.10
2017-08-13T00:30:05.350Z,4.43
2017-08-13T00:32:36.493Z,4.70
2017-08-13T00:35:04.927Z,4.33
2017-08-13T00:37:33.355Z,4.60
2017-08-13T00:40:07.291Z,5.10
2017-08-13T00:42:38.518Z,4.50
2017-08-13T00:45:07.545Z,4.17
2017-08-13T00:47:35.974Z,5.33
2017-08-13T00:50:05.348Z,4.60
2017-08-13T00:52:33.836Z,4.80
2017-08-13T00:55:06.940Z,5.37
2017-08-13T00:57:35.515Z,4.60
2017-08-13T01:00:04.108Z,4.80
2017-08-13T01:02:32.511Z,4.90
2017-08-13T01:05:01.062Z,4.20
2017-08-13T01:07:34.756Z,4.80
2017-08-13T01:10:07.709Z,5.63
2017-08-13T01:12:37.614Z,5.00
2017-08-13T01:15:09.171Z,5.70
2017-08-13T01:17:37.603Z,4.77
2017-08-13T01:20:06.006Z,6.80
2017-08-13T01:22:37.078Z,5.13
2017-08-13T01:25:05.480Z,5.70
2017-08-13T01:27:38.612Z,6.43
2017-08-13T01:30:07.012Z,6.40
2017-08-13T01:32:37.273Z,6.70
2017-08-13T01:35:07.369Z,5.97
2017-08-13T01:37:35.884Z,5.53
2017-08-13T01:40:06.981Z,5.10
2017-08-13T01:42:35.373Z,6.10
2017-08-13T01:45:05.433Z,5.90
2017-08-13T01:47:33.956Z,6.87
2017-08-13T01:50:02.367Z,5.30
2017-08-13T01:52:30.778Z,5.97
2017-08-13T01:54:59.209Z,6.03
2017-08-13T01:57:27.742Z,5.23
2017-08-13T02:00:26.297Z,5.70
2017-08-13T02:03:06.672Z,5.67
2017-08-13T02:05:38.946Z,5.90
2017-08-13T02:08:07.367Z,5.70
2017-08-13T02:10:35.781Z,5.67
2017-08-13T02:13:04.216Z,6.63
2017-08-13T02:15:32.625Z,6.07
2017-08-13T02:18:06.773Z,6.40
2017-08-13T02:20:36.897Z,6.87
2017-08-13T02:23:06.465Z,7.23
2017-08-13T02:25:36.014Z,5.50
2017-08-13T02:28:05.011Z,5.13
2017-08-13T02:30:35.298Z,5.03
2017-08-13T02:33:04.013Z,4.90
2017-08-13T02:35:35.727Z,3.90
2017-08-13T02:38:07.079Z,4.50
2017-08-13T02:40:35.527Z,6.20
2017-08-13T02:43:03.932Z,4.37
2017-08-13T02:45:32.412Z,5.40
2017-08-13T02:48:00.957Z,5.33
2017-08-13T02:50:29.762Z,4.83
2017-08-13T02:52:58.277Z,4.80
2017-08-13T02:55:27.915Z,5.43
2017-08-13T02:57:57.541Z,5.47
2017-08-13T03:00:26.087Z,4.30
2017-08-13T03:02:54.603Z,5.00
2017-08-13T03:05:23.297Z,4.80
2017-08-13T03:07:53.185Z,5.33
2017-08-13T03:10:21.781Z,5.87
2017-08-13T03:12:53.579Z,5.90
2017-08-13T03:15:23.243Z,5.00
2017-08-13T03:17:51.897Z,4.87
2017-08-13T03:20:20.608Z,5.17
2017-08-13T03:22:49.194Z,5.00
2017-08-13T03:25:18.399Z,5.33
2017-08-13T03:27:47.114Z,6.57
2017-08-13T03:30:15.665Z,6.10
2017-08-13T03:32:44.290Z,6.50
2017-08-13T03:35:12.776Z,5.57
2017-08-13T03:37:41.213Z,6.63
2017-08-13T03:40:09.666Z,6.20
2017-08-13T03:42:38.084Z,5.80
2017-08-13T03:45:06.482Z,6.80
2017-08-13T03:47:35.067Z,5.50
2017-08-13T03:50:03.655Z,5.30
2017-08-13T03:52:32.145Z,6.40
2017-08-13T03:55:00.718Z,6.70
2017-08-13T03:57:29.186Z,6.33
2017-08-13T03:59:57.597Z,5.90
2017-08-13T04:02:26.095Z,5.57
2017-08-13T04:04:54.540Z,5.00
2017-08-13T04:07:23.030Z,7.13
2017-08-13T04:09:51.575Z,7.23
2017-08-13T04:12:20.060Z,6.13
2017-08-13T04:14:48.571Z,5.73
2017-08-13T04:17:17.164Z,5.27
2017-08-13T04:19:45.662Z,6.53
2017-08-13T04:22:14.104Z,7.13
2017-08-13T04:24:42.734Z,6.77
2017-08-13T04:27:11.149Z,6.60
2017-08-13T04:29:39.548Z,7.50
2017-08-13T04:32:08.153Z,6.10
2017-08-13T04:34:36.583Z,6.13
2017-08-13T04:37:05.001Z,7.07
2017-08-13T04:39:33.560Z,7.07
2017-08-13T04:42:02.046Z,6.93
2017-08-13T04:44:30.482Z,7.00
2017-08-13T04:46:58.978Z,6.90
2017-08-13T04:49:27.383Z,6.00
2017-08-13T04:51:55.854Z,6.83
2017-08-13T04:54:24.426Z,6.30
2017-08-13T04:56:52.887Z,5.97
2017-08-13T04:59:21.293Z,6.67
2017-08-13T05:01:49.786Z,6.00
2017-08-13T05:04:18.353Z,6.00
2017-08-13T05:06:46.872Z,6.27
2017-08-13T05:09:15.306Z,6.50
2017-08-13T05:11:44.503Z,5.70
2017-08-13T05:14:12.930Z,7.40
2017-08-13T05:16:41.543Z,6.43
2017-08-13T05:19:09.966Z,7.23
2017-08-13T05:21:38.434Z,6.27
2017-08-13T05:24:07.030Z,5.60
2017-08-13T05:26:35.463Z,6.80
2017-08-13T05:29:03.897Z,7.37
2017-08-13T05:31:32.622Z,6.27
2017-08-13T05:34:01.100Z,6.87
2017-08-13T05:36:30.286Z,6.80
2017-08-13T05:38:58.704Z,7.00
2017-08-13T05:41:27.121Z,7.30
2017-08-13T05:43:55.610Z,6.10
2017-08-13T05:46:25.949Z,6.57
2017-08-13T05:48:54.490Z,7.57
2017-08-13T05:51:22.937Z,5.90
2017-08-13T05:53:51.523Z,6.87
2017-08-13T05:56:20.408Z,5.63
2017-08-13T05:58:49.126Z,7.93
2017-08-13T06:01:17.810Z,7.10
2017-08-13T06:03:47.023Z,7.60
2017-08-13T06:06:15.508Z,7.80
2017-08-13T06:08:44.289Z,7.90
2017-08-13T06:11:12.770Z,8.40
2017-08-13T06:13:46.461Z,5.53
2017-08-13T06:16:15.865Z,7.87
2017-08-13T06:18:55.244Z,6.67
2017-08-13T06:21:24.754Z,7.70
2017-08-13T06:23:53.243Z,8.90
2017-08-13T06:26:31.914Z,9.13
2017-08-13T06:29:06.514Z,8.47
2017-08-13T06:31:35.044Z,7.80
2017-08-13T06:34:03.466Z,7.40
2017-08-13T06:36:36.954Z,8.47
2017-08-13T06:39:04.818Z,7.60
2017-08-13T06:41:34.810Z,9.00
2017-08-13T06:44:04.365Z,8.03
2017-08-13T06:46:39.660Z,7.57
2017-08-13T06:49:08.189Z,7.43
2017-08-13T06:51:36.298Z,8.33
2017-08-13T06:54:06.779Z,8.97
2017-08-13T06:56:35.226Z,8.50
2017-08-13T06:59:03.820Z,8.60
2017-08-13T07:01:33.474Z,8.47
2017-08-13T07:04:05.278Z,7.77
2017-08-13T07:06:36.782Z,7.60
2017-08-13T07:09:06.555Z,7.30
2017-08-13T07:11:34.990Z,8.87
2017-08-13T07:14:03.391Z,9.70
2017-08-13T07:16:34.643Z,8.53
2017-08-13T07:19:06.728Z,8.73
2017-08-13T07:21:36.161Z,8.30
2017-08-13T07:24:06.355Z,9.30
2017-08-13T07:26:34.868Z,6.93
2017-08-13T07:29:03.654Z,8.20
2017-08-13T07:31:32.184Z,7.90
2017-08-13T07:34:00.726Z,8.33
2017-08-13T07:36:29.467Z,8.60
2017-08-13T07:38:57.963Z,8.63
2017-08-13T07:41:26.423Z,7.67
2017-08-13T07:43:55.019Z,9.03
2017-08-13T07:46:30.576Z,9.00
2017-08-13T07:49:01.167Z,8.17
2017-08-13T07:51:29.700Z,6.73
2017-08-13T07:54:02.306Z,7.57
2017-08-13T07:56:30.750Z,8.33
2017-08-13T07:58:59.183Z,7.90
2017-08-13T08:01:27.727Z,9.27
2017-08-13T08:03:56.219Z,9.63
2017-08-13T08:06:24.636Z,8.50
2017-08-13T08:08:55.941Z,8.53
2017-08-13T08:11:24.541Z,9.97
2017-08-13T08:13:57.086Z,9.67
2017-08-13T08:16:25.813Z,8.63
2017-08-13T08:18:54.267Z,8.47
2017-08-13T08:21:22.902Z,8.93
2017-08-13T08:23:52.738Z,9.20
2017-08-13T08:26:21.358Z,10.80
2017-08-13T08:29:06.687Z,11.27
2017-08-13T08:31:38.154Z,8.77
2017-08-13T08:34:08.093Z,9.73
2017-08-13T08:36:37.363Z,10.60
2017-08-13T08:39:08.927Z,8.10
2017-08-13T08:41:37.358Z,9.37
2017-08-13T08:44:07.419Z,9.57
2017-08-13T08:46:38.849Z,9.00
2017-08-13T08:49:07.423Z,11.23
2017-08-13T08:51:35.850Z,9.67
2017-08-13T08:54:06.352Z,8.27
2017-08-13T08:56:34.822Z,9.07
2017-08-13T08:59:03.266Z,7.80
2017-08-13T09:01:31.868Z,10.43
2017-08-13T09:04:02.271Z,8.13
2017-08-13T09:06:30.784Z,8.43
2017-08-13T09:09:06.521Z,7.80
2017-08-13T09:11:36.425Z,11.50
2017-08-13T09:14:06.565Z,8.67
2017-08-13T09:16:35.398Z,8.63
2017-08-13T09:19:05.254Z,8.27
2017-08-13T09:21:36.434Z,9.50
2017-08-13T09:24:05.680Z,8.53
2017-08-13T09:26:34.069Z,8.00
2017-08-13T09:29:02.510Z,8.30
2017-08-13T09:31:31.936Z,9.47
2017-08-13T09:34:00.505Z,8.47
2017-08-13T09:36:28.990Z,7.87
2017-08-13T09:38:59.275Z,8.50
2017-08-13T09:41:30.249Z,8.33
2017-08-13T09:49:38.017Z,7.63
2017-08-13T09:52:06.548Z,7.30
2017-08-13T09:54:39.666Z,8.73
2017-08-13T09:57:20.964Z,9.37
2017-08-13T09:59:53.427Z,8.23
2017-08-13T10:02:22.602Z,9.00
2017-08-13T10:04:51.691Z,6.03
2017-08-13T10:07:21.075Z,7.50
2017-08-13T10:09:52.587Z,6.20
2017-08-13T10:12:22.428Z,6.83
2017-08-13T10:14:51.901Z,6.40
2017-08-13T10:17:21.062Z,7.43
2017-08-13T10:19:52.111Z,6.80
2017-08-13T10:22:21.811Z,7.80
2017-08-13T10:24:50.351Z,7.67
2017-08-13T10:27:21.071Z,6.37
2017-08-13T10:29:50.351Z,5.10
2017-08-13T10:32:21.385Z,5.20
2017-08-13T10:34:50.098Z,4.83
2017-08-13T10:37:20.269Z,4.70
2017-08-13T10:39:49.057Z,5.83
2017-08-13T10:42:17.468Z,5.03
2017-08-13T10:44:45.899Z,5.90
2017-08-13T10:47:18.692Z,6.43
2017-08-13T10:49:47.113Z,5.43
2017-08-13T10:52:16.140Z,4.63
2017-08-13T10:54:46.666Z,6.27
2017-08-13T10:57:15.222Z,5.30
2017-08-13T10:59:43.807Z,5.93
2017-08-13T11:02:12.222Z,6.47
2017-08-13T11:04:40.856Z,6.00
2017-08-13T11:07:09.597Z,7.10
2017-08-13T11:09:38.001Z,6.00
2017-08-13T11:12:06.442Z,5.50
2017-08-13T11:14:35.151Z,6.57
2017-08-13T11:17:03.668Z,7.00
2017-08-13T11:19:32.166Z,6.70
2017-08-13T11:22:00.707Z,5.50
2017-08-13T11:24:29.351Z,4.30
2017-08-13T11:26:57.826Z,4.70
2017-08-13T11:29:26.357Z,4.67
2017-08-13T11:31:54.867Z,4.90
2017-08-13T11:34:23.271Z,4.53
2017-08-13T11:36:51.975Z,5.10
2017-08-13T11:39:20.391Z,4.47
2017-08-13T11:41:48.859Z,3.90
2017-08-13T11:44:19.931Z,3.57
2017-08-13T11:46:48.383Z,3.60
2017-08-13T11:49:16.851Z,3.73
2017-08-13T11:51:45.520Z,3.10
2017-08-13T11:54:15.010Z,3.40
2017-08-13T11:59:21.981Z,3.93
2017-08-13T12:01:50.647Z,4.77
2017-08-13T12:04:22.026Z,4.30
2017-08-13T12:06:53.065Z,4.40
2017-08-13T12:09:22.050Z,4.23
2017-08-13T12:11:55.170Z,5.03
2017-08-13T12:14:23.747Z,4.70
2017-08-13T12:16:52.834Z,5.03
2017-08-13T12:22:20.170Z,3.47
2017-08-13T12:27:53.868Z,4.13
2017-08-13T12:30:22.348Z,3.30
2017-08-13T12:33:03.870Z,3.33
2017-08-13T12:35:35.627Z,3.17
2017-08-13T12:49:57.848Z,3.37
2017-08-13T12:52:45.324Z,3.70
2017-08-13T12:55:13.883Z,2.80
2017-08-13T12:57:57.977Z,2.50
2017-08-13T13:00:29.850Z,2.43
2017-08-13T13:02:59.279Z,2.97
2017-08-13T13:08:20.503Z,2.77
2017-08-13T13:11:08.798Z,2.63
2017-08-13T13:13:41.134Z,2.53
2017-08-13T13:16:10.442Z,3.40
2017-08-13T13:18:42.102Z,3.17
2017-08-13T13:21:11.432Z,2.93
2017-08-13T13:26:42.977Z,2.27
2017-08-13T13:29:16.342Z,2.97
2017-08-13T13:37:41.131Z,2.10
2017-08-13T13:40:25.821Z,2.10
2017-08-13T13:42:55.978Z,2.10
2017-08-13T13:45:40.287Z,2.10
2017-08-13T13:48:23.367Z,2.27
2017-08-13T13:51:04.182Z,2.23
2017-08-13T13:53:35.704Z,1.97
2017-08-13T13:56:08.091Z,2.73
2017-08-13T13:58:36.651Z,2.13
2017-08-13T14:01:06.935Z,2.00
2017-08-13T14:06:36.133Z,2.60
2017-08-13T14:09:07.860Z,2.77
2017-08-13T14:11:58.139Z,3.40
2017-08-13T14:17:19.435Z,3.00
2017-08-13T14:19:57.946Z,3.57
2017-08-13T14:22:38.744Z,3.37
2017-08-13T14:25:07.171Z,3.00
2017-08-13T14:27:39.192Z,2.73
2017-08-13T14:30:13.139Z,2.83
2017-08-13T14:35:39.175Z,2.17
2017-08-13T14:44:08.591Z,2.63
2017-08-13T14:46:41.370Z,2.53
2017-08-13T14:49:09.848Z,2.10
2017-08-13T14:51:40.510Z,2.80
2017-08-13T14:54:08.898Z,2.87
2017-08-13T14:56:37.261Z,2.23
2017-08-13T14:59:05.804Z,2.27
2017-08-13T15:01:34.194Z,2.03
2017-08-13T15:04:02.587Z,2.50
2017-08-13T15:06:31.029Z,2.17
2017-08-13T15:08:59.414Z,2.17
2017-08-13T15:11:27.792Z,2.07
2017-08-13T15:13:56.485Z,2.47
2017-08-13T15:16:24.857Z,2.40
2017-08-13T15:18:53.244Z,2.53
2017-08-13T15:21:21.641Z,3.10
2017-08-13T15:23:50.009Z,2.43
2017-08-13T15:26:18.397Z,2.80
2017-08-13T15:28:46.937Z,16.43
2017-08-13T15:31:15.316Z,2.90
2017-08-13T15:33:43.681Z,8.10
2017-08-13T15:36:12.244Z,3.33
2017-08-13T15:38:40.632Z,3.77
2017-08-13T15:41:09.032Z,2.87
2017-08-13T15:43:37.620Z,2.80
2017-08-13T15:50:11.434Z,2.70
2017-08-13T15:52:39.805Z,2.47
2017-08-13T15:55:08.190Z,2.60
2017-08-13T15:57:36.845Z,2.10
2017-08-13T16:00:06.012Z,2.63
2017-08-13T16:02:34.445Z,3.73
2017-08-13T16:05:03.014Z,4.23
2017-08-13T16:07:31.405Z,3.60
2017-08-13T16:09:59.781Z,3.50
2017-08-13T16:12:28.346Z,4.37
2017-08-13T16:14:57.509Z,2.97
2017-08-13T16:17:25.884Z,3.67
2017-08-13T16:19:54.602Z,3.30
2017-08-13T16:22:23.752Z,3.47
2017-08-13T16:24:52.142Z,3.50
2017-08-13T16:27:20.874Z,3.57
2017-08-13T16:29:49.261Z,3.07
2017-08-13T16:32:17.644Z,4.17
2017-08-13T16:34:46.205Z,3.33
2017-08-13T16:37:15.423Z,4.43
2017-08-13T16:39:43.810Z,5.67
2017-08-13T16:42:12.368Z,5.00
2017-08-13T16:44:40.820Z,6.10
2017-08-13T16:47:09.006Z,4.90
2017-08-13T16:49:38.221Z,5.00
2017-08-13T16:52:07.380Z,6.00
2017-08-13T16:54:35.769Z,5.27
2017-08-13T16:57:04.381Z,5.53
2017-08-13T16:59:33.575Z,5.30
2017-08-13T17:02:02.725Z,7.00
2017-08-13T17:04:31.178Z,5.03
2017-08-13T17:06:59.570Z,4.80
2017-08-13T17:09:27.948Z,5.50
2017-08-13T17:11:56.355Z,5.83
2017-08-13T17:14:24.736Z,6.20
2017-08-13T17:16:53.111Z,7.17
2017-08-13T17:19:21.949Z,6.13
2017-08-13T17:21:50.337Z,4.83
2017-08-13T17:24:18.717Z,5.90
2017-08-13T17:26:47.128Z,5.77
2017-08-13T17:29:16.347Z,5.67
2017-08-13T17:31:45.489Z,5.50
2017-08-13T17:34:13.980Z,6.40
2017-08-13T17:36:42.391Z,5.43
2017-08-13T17:39:10.787Z,5.13
2017-08-13T17:41:39.361Z,5.90
2017-08-13T17:44:07.813Z,5.97
2017-08-13T17:46:36.197Z,4.87
2017-08-13T17:49:04.800Z,5.30
2017-08-13T17:51:33.976Z,5.93
2017-08-13T17:54:02.422Z,5.20
2017-08-13T17:56:31.165Z,5.20
2017-08-13T17:59:00.305Z,5.40
2017-08-13T18:01:28.694Z,5.80
2017-08-13T18:03:57.182Z,5.63
2017-08-13T18:06:25.578Z,5.73
2017-08-13T18:08:53.980Z,5.97
2017-08-13T18:11:23.081Z,6.87
2017-08-13T18:13:52.216Z,7.60
2017-08-13T18:16:20.599Z,7.37
2017-08-13T18:18:49.095Z,7.83
2017-08-13T18:21:17.473Z,8.17
2017-08-13T18:23:45.847Z,7.93
2017-08-13T18:26:14.303Z,7.70
2017-08-13T18:28:42.687Z,7.93
2017-08-13T18:31:11.076Z,7.50
2017-08-13T18:33:39.497Z,7.47
2017-08-13T18:36:08.643Z,9.27
2017-08-13T18:38:37.027Z,7.63
2017-08-13T18:41:05.454Z,8.03
2017-08-13T18:43:33.977Z,7.60
2017-08-13T18:46:02.371Z,7.33
2017-08-13T18:48:31.002Z,8.00
2017-08-13T18:51:00.208Z,7.00
2017-08-13T18:53:28.602Z,7.40
2017-08-13T18:55:57.317Z,6.90
2017-08-13T18:58:25.682Z,7.13
2017-08-13T19:00:54.058Z,7.10
2017-08-13T19:03:22.814Z,8.03
2017-08-13T19:05:51.290Z,7.03
2017-08-13T19:08:19.807Z,7.47
2017-08-13T19:10:48.286Z,7.70
2017-08-13T19:13:16.926Z,6.37
2017-08-13T19:15:46.119Z,7.00
2017-08-13T19:18:15.382Z,6.43
2017-08-13T19:20:43.887Z,8.30
2017-08-13T19:23:12.358Z,6.90
2017-08-13T19:25:41.104Z,7.67
2017-08-13T19:28:09.497Z,8.90
2017-08-13T19:30:37.940Z,6.40
2017-08-13T19:33:06.579Z,7.10
2017-08-13T19:35:35.015Z,7.47
2017-08-13T19:38:03.603Z,8.13
2017-08-13T19:40:32.350Z,8.83
2017-08-13T19:43:00.836Z,8.10
2017-08-13T19:45:29.243Z,8.30
2017-08-13T19:47:57.734Z,8.30
2017-08-13T19:50:26.238Z,7.33
2017-08-13T19:52:54.876Z,6.87
2017-08-13T19:55:23.562Z,8.03
2017-08-13T19:57:52.044Z,8.03
2017-08-13T20:00:20.539Z,7.30
2017-08-13T20:02:49.047Z,7.33
2017-08-13T20:05:17.475Z,6.40
2017-08-13T20:07:46.004Z,6.93
2017-08-13T20:10:14.465Z,7.00
2017-08-13T20:12:43.058Z,6.90
2017-08-13T20:15:12.674Z,7.37
2017-08-13T20:17:41.498Z,6.17
2017-08-13T20:20:13.469Z,6.30
2017-08-13T20:22:41.971Z,5.50
2017-08-13T20:25:10.397Z,7.90
2017-08-13T20:27:38.812Z,7.27
2017-08-13T20:30:08.120Z,6.43
2017-08-13T20:32:36.571Z,6.37
2017-08-13T20:35:05.096Z,7.00
2017-08-13T20:37:33.883Z,7.20
2017-08-13T20:40:02.192Z,5.97
2017-08-13T20:42:31.456Z,6.33
2017-08-13T20:45:00.545Z,5.20
2017-08-13T20:47:28.923Z,6.20
2017-08-13T20:49:59.082Z,6.30
2017-08-13T20:52:27.694Z,6.00
2017-08-13T20:54:56.140Z,6.63
2017-08-13T20:57:24.606Z,6.30
2017-08-13T20:59:53.307Z,5.90
2017-08-13T21:02:21.740Z,5.33
2017-08-13T21:04:50.905Z,5.87
2017-08-13T21:07:19.525Z,5.37
2017-08-13T21:09:49.466Z,6.57
2017-08-13T21:12:18.049Z,6.40
2017-08-13T21:14:46.577Z,5.93
2017-08-13T21:17:15.023Z,6.27
2017-08-13T21:19:43.411Z,6.80
2017-08-13T21:22:12.188Z,5.63
2017-08-13T21:24:40.593Z,7.27
2017-08-13T21:27:09.082Z,5.20
2017-08-13T21:29:37.507Z,5.97
2017-08-13T21:32:05.885Z,5.37
2017-08-13T21:34:34.269Z,7.87
2017-08-13T21:37:02.835Z,4.93
2017-08-13T21:39:32.011Z,5.17
2017-08-13T21:42:00.453Z,5.87
2017-08-13T21:44:29.153Z,5.80
2017-08-13T21:46:57.605Z,5.97
2017-08-13T21:49:29.120Z,4.83
2017-08-13T21:51:57.702Z,5.03
2017-08-13T21:54:26.854Z,5.63
2017-08-13T21:56:55.245Z,5.93
2017-08-13T21:59:23.966Z,4.53
2017-08-13T22:01:53.129Z,5.03
2017-08-13T22:04:21.614Z,5.77
2017-08-13T22:06:50.255Z,6.10
2017-08-13T22:09:18.661Z,5.20
2017-08-13T22:11:47.164Z,5.83
2017-08-13T22:14:16.625Z,5.83
2017-08-13T22:16:45.710Z,5.97
2017-08-13T22:19:14.161Z,5.17
2017-08-13T22:21:43.699Z,5.13
2017-08-13T22:24:12.080Z,5.33
2017-08-13T22:26:40.449Z,4.87
2017-08-13T22:29:08.865Z,4.70
2017-08-13T22:31:37.275Z,5.10
2017-08-13T22:34:06.423Z,5.33
2017-08-13T22:36:35.064Z,4.17
2017-08-13T22:39:03.510Z,5.53
2017-08-13T22:41:31.902Z,5.77
2017-08-13T22:44:00.607Z,4.77
2017-08-13T22:46:28.991Z,5.07
2017-08-13T22:48:57.373Z,5.70
2017-08-13T22:51:26.140Z,5.70
2017-08-13T22:53:55.278Z,4.90
2017-08-13T22:56:23.640Z,5.10
2017-08-13T22:58:52.193Z,5.53
2017-08-13T23:01:21.992Z,4.50
2017-08-13T23:03:50.361Z,5.70
2017-08-13T23:06:18.971Z,5.00
2017-08-13T23:08:48.118Z,5.23
2017-08-13T23:11:16.504Z,5.70
2017-08-13T23:13:44.897Z,5.80
2017-08-13T23:16:13.290Z,5.73
2017-08-13T23:18:41.669Z,5.67
2017-08-13T23:21:10.474Z,5.37
2017-08-13T23:23:39.627Z,5.33
2017-08-13T23:26:08.012Z,5.27
2017-08-13T23:28:36.590Z,5.73
2017-08-13T23:31:04.966Z,6.27
2017-08-13T23:33:33.350Z,6.57
2017-08-13T23:36:01.768Z,6.37
2017-08-13T23:38:30.904Z,6.00
2017-08-13T23:40:59.306Z,6.70
2017-08-13T23:43:27.926Z,5.10
2017-08-13T23:45:57.077Z,5.77
2017-08-13T23:48:25.454Z,5.70
2017-08-13T23:50:53.847Z,5.83
2017-08-13T23:53:22.228Z,6.07
2017-08-13T23:55:51.282Z,5.37
2017-08-13T23:58:19.919Z,5.97
